Hlavní strana
METAR-TAF:

METAR-TAF

Letiště :

Lusaka, Zambie

zeměpisná šířka: 15-19-51S, zeměpisná délka: 028-27-09E, výška: 1152 m

Aktuální stav počasí

Zpráva byla vytvořena před 1 hodinou a 52 minutami, v 20:00 UTC
Východojihovýchodní vítr 5 kt
Teplota 22°C
Vlhkost vzduchu 69%
Tlak 1017 hPa
Viditelnost 10 km a více
Žádná oblačnost pod 1500 m, nevyskytují se cumulonimby.

METAR: FLKK 222000Z 12005KT CAVOK 22/16 Q1017

Čas: 23:52 (21:52 UTC)


TAF: chybějící

Stav a předpovědi počasí z více než 4 000 letišť (zprávy METAR a TAF).

Červené a žluté tečky na mapě představují dostupné meteorologické stanice.

Když kurzor umístíte na tečku, zobrazí se název stanice.

Pak kliknutím zobrazíte stav a předpověď počasí.

Chcete-li změnit mapu, kliknutím na zelené tlačítko se znaménkem +mapu přiblížíte, kliknutím na zelené tlačítko se znaménkem – mapu oddálíte a kliknutím na zelené šipky přejdete na sousední mapy.


METAR-TAF: